Time;durP1;ratioP1;P1;durP2;ratioP2;P2;SDS_P1;SDS_P2;PMS_P1;PMS_P2;Temp;Humidity;BMP_temperature;BMP_pressure;BME280_temperature;BME280_humidity;BME280_pressure;Samples;Min_cycle;Max_cycle;Signal;HPM_P1;HPM_P2
2023/09/24 00:00:59;;;;;;;27.67;7.40;;;;;;;-143.21;57.62;71203.72;5108389;28;20697;-79
2023/09/24 00:03:26;;;;;;;29.67;7.15;;;;;;;-143.21;58.13;71205.72;5108304;28;20223;-78
2023/09/24 00:05:54;;;;;;;27.65;7.28;;;;;;;-143.21;58.42;71209.69;5108646;28;20687;-78
2023/09/24 00:08:22;;;;;;;27.80;7.05;;;;;;;-143.21;58.68;71227.53;5108267;28;20212;-79
2023/09/24 00:10:50;;;;;;;31.23;6.95;;;;;;;-143.21;58.74;71235.44;5108421;28;20675;-79
2023/09/24 00:13:17;;;;;;;35.97;7.43;;;;;;;-143.21;59.04;71241.41;5109532;28;20208;-78
2023/09/24 00:15:44;;;;;;;33.83;7.75;;;;;;;-143.21;59.68;71247.34;5111030;28;20211;-78
2023/09/24 00:18:11;;;;;;;32.83;7.32;;;;;;;-143.21;59.20;71255.28;5111739;28;20206;-78
2023/09/24 00:20:39;;;;;;;38.45;7.43;;;;;;;-143.21;60.08;71273.13;5111796;28;20246;-78
2023/09/24 00:23:05;;;;;;;29.35;7.43;;;;;;;-143.21;59.94;71265.19;5111563;28;20633;-78
2023/09/24 00:25:33;;;;;;;34.72;8.27;;;;;;;-143.21;60.05;71263.22;5112237;28;20589;-78
2023/09/24 00:28:01;;;;;;;28.13;7.70;;;;;;;-143.21;59.55;71269.16;5111675;28;20649;-78
2023/09/24 00:30:28;;;;;;;29.92;7.65;;;;;;;-143.21;59.99;71290.97;5108958;28;20305;-78
2023/09/24 00:32:55;;;;;;;25.92;8.00;;;;;;;-143.21;59.81;71283.03;5108289;28;20725;-78
2023/09/24 00:35:22;;;;;;;28.80;7.65;;;;;;;-143.21;59.76;71285.03;5111493;28;20212;-78
2023/09/24 00:37:49;;;;;;;36.28;8.45;;;;;;;-143.21;59.85;71283.03;5111849;28;20253;-78
2023/09/24 00:40:16;;;;;;;27.77;8.05;;;;;;;-143.21;59.67;71281.06;5111494;28;20580;-77
2023/09/24 00:42:44;;;;;;;33.58;8.32;;;;;;;-143.21;59.72;71287.00;5114020;28;20215;-78
2023/09/24 00:45:14;;;;;;;28.23;7.25;;;;;;;-143.21;59.68;71288.97;5111296;28;20199;-78
2023/09/24 00:47:45;;;;;;;38.97;7.70;;;;;;;-143.21;60.19;71287.00;5112145;28;20207;-78
2023/09/24 00:50:12;;;;;;;34.13;7.45;;;;;;;-143.21;60.31;71281.06;5111088;28;20203;-78
2023/09/24 00:52:39;;;;;;;28.17;7.95;;;;;;;-143.21;59.96;71285.03;5116395;28;20196;-79
2023/09/24 00:55:08;;;;;;;28.65;7.38;;;;;;;-143.21;59.91;71300.88;5113464;28;20200;-77
2023/09/24 00:57:36;;;;;;;28.65;7.50;;;;;;;-143.21;60.73;71302.84;5111266;28;20236;-77
2023/09/24 01:00:09;;;;;;;26.83;6.97;;;;;;;-143.21;60.21;71302.84;5110835;28;20207;-79
2023/09/24 01:02:37;;;;;;;35.13;7.60;;;;;;;-143.21;60.10;71294.94;5111424;28;20220;-79
2023/09/24 01:05:05;;;;;;;29.98;7.55;;;;;;;-143.21;60.85;71287.00;5111044;28;20203;-79
2023/09/24 01:07:32;;;;;;;26.45;7.47;;;;;;;-143.21;59.39;71304.84;5111453;28;20227;-79
2023/09/24 01:09:59;;;;;;;29.15;7.20;;;;;;;-143.21;59.68;71292.94;5109829;28;20206;-78
2023/09/24 01:12:29;;;;;;;30.30;7.53;;;;;;;-143.21;59.79;71288.97;5111382;28;20192;-77
2023/09/24 01:14:57;;;;;;;30.63;6.90;;;;;;;-143.21;58.81;71292.94;5107349;28;20203;-76
2023/09/24 01:17:25;;;;;;;22.98;7.38;;;;;;;-143.21;59.25;71296.91;5111371;28;20207;-81
2023/09/24 01:19:53;;;;;;;25.60;7.45;;;;;;;-143.21;59.97;71306.81;5111402;28;20574;-82
2023/09/24 01:22:22;;;;;;;30.83;7.50;;;;;;;-143.21;60.08;71294.94;5111262;28;20266;-81
2023/09/24 01:24:48;;;;;;;28.48;7.20;;;;;;;-143.21;60.22;71296.91;5110257;28;20265;-79
2023/09/24 01:27:16;;;;;;;39.03;8.02;;;;;;;-143.21;60.26;71300.88;5110701;28;20650;-79
2023/09/24 01:29:42;;;;;;;37.10;7.68;;;;;;;-143.21;60.65;71304.84;5110631;28;20215;-79
2023/09/24 01:32:11;;;;;;;30.33;7.10;;;;;;;-143.21;60.20;71308.81;5110456;27;20234;-79
2023/09/24 01:34:38;;;;;;;35.80;7.53;;;;;;;-143.21;60.22;71306.81;5110248;28;20196;-80
2023/09/24 01:37:08;;;;;;;26.20;6.65;;;;;;;-143.21;60.84;71312.78;5110180;28;20203;-81
2023/09/24 01:39:37;;;;;;;24.80;6.75;;;;;;;-143.21;60.60;71320.69;5110534;28;20231;-80
2023/09/24 01:42:05;;;;;;;22.77;7.45;;;;;;;-143.21;60.78;71316.75;5110402;28;20288;-80
2023/09/24 01:44:33;;;;;;;29.27;7.30;;;;;;;-143.21;61.73;71322.69;5110305;28;20207;-80
2023/09/24 01:47:03;;;;;;;36.60;7.13;;;;;;;-143.21;61.96;71318.72;5110413;28;20229;-80
2023/09/24 01:49:30;;;;;;;38.00;7.65;;;;;;;-143.21;61.73;71320.69;5110416;28;20678;-79
2023/09/24 01:51:57;;;;;;;30.77;6.43;;;;;;;-143.21;60.80;71318.72;5114553;27;20207;-79
2023/09/24 01:54:25;;;;;;;35.10;7.68;;;;;;;-143.21;61.00;71334.59;5110452;28;20207;-79
2023/09/24 01:56:54;;;;;;;28.38;6.78;;;;;;;-143.21;60.67;71334.59;5110900;28;20997;-80
2023/09/24 01:59:21;;;;;;;27.17;7.00;;;;;;;-143.21;60.76;71338.53;5110270;28;20524;-80
2023/09/24 02:01:48;;;;;;;41.03;6.88;;;;;;;-143.21;60.66;71338.53;5115922;28;20678;-80
2023/09/24 02:04:14;;;;;;;33.00;7.70;;;;;;;-143.21;60.92;71342.50;5111105;28;20223;-80
2023/09/24 02:06:41;;;;;;;36.08;8.07;;;;;;;-143.21;61.05;71340.53;5110733;28;20200;-80
2023/09/24 02:09:08;;;;;;;33.55;7.47;;;;;;;-143.21;60.44;71338.53;5109680;28;20204;-78
2023/09/24 02:11:35;;;;;;;31.23;6.38;;;;;;;-143.21;60.68;71348.47;5110155;28;20583;-78
2023/09/24 02:14:04;;;;;;;32.22;7.07;;;;;;;-143.21;61.26;71354.41;5109575;28;20200;-81
2023/09/24 02:16:31;;;;;;;32.30;7.57;;;;;;;-143.21;61.63;71358.38;5110080;28;20610;-80
2023/09/24 02:18:58;;;;;;;33.50;7.60;;;;;;;-143.21;62.24;71364.31;5110103;28;20499;-79
2023/09/24 02:21:25;;;;;;;37.88;7.97;;;;;;;-143.21;62.37;71358.38;5109825;28;20314;-81
2023/09/24 02:23:54;;;;;;;35.13;7.05;;;;;;;-143.21;62.42;71356.38;5109932;28;20670;-81
2023/09/24 02:26:21;;;;;;;35.72;7.38;;;;;;;-143.21;62.22;71362.34;5109483;28;20646;-80
2023/09/24 02:28:47;;;;;;;22.13;6.18;;;;;;;-143.21;62.40;71360.34;5109161;28;20219;-80
2023/09/24 02:31:16;;;;;;;31.70;6.78;;;;;;;-143.21;62.89;71368.28;5109010;28;20582;-80
2023/09/24 02:33:43;;;;;;;28.33;7.10;;;;;;;-143.21;63.04;71364.31;5109166;28;20200;-79
2023/09/24 02:36:10;;;;;;;31.10;7.03;;;;;;;-143.21;63.16;71366.31;5107526;28;20729;-79
2023/09/24 02:38:37;;;;;;;27.17;7.32;;;;;;;-143.21;63.20;71358.38;5110014;28;20570;-79
2023/09/24 02:41:05;;;;;;;30.10;7.07;;;;;;;-143.21;63.43;71370.28;5108685;28;20224;-79
2023/09/24 02:43:32;;;;;;;33.97;7.05;;;;;;;-143.21;62.84;71370.28;5109512;28;20207;-79
2023/09/24 02:45:59;;;;;;;37.60;8.55;;;;;;;-143.21;63.08;71380.19;5109654;28;20264;-79
2023/09/24 02:48:28;;;;;;;41.28;7.95;;;;;;;-143.21;63.07;71370.28;5110150;28;20204;-79
2023/09/24 02:50:55;;;;;;;38.53;8.60;;;;;;;-143.21;63.28;71368.28;5106079;28;20236;-79
2023/09/24 02:53:22;;;;;;;34.05;7.90;;;;;;;-143.21;63.59;71366.31;5108884;28;20207;-79
2023/09/24 02:55:49;;;;;;;26.65;8.13;;;;;;;-143.21;63.46;71368.28;5108388;28;20204;-79
2023/09/24 02:58:17;;;;;;;31.48;8.52;;;;;;;-143.21;63.80;71376.22;5111719;28;20196;-78
2023/09/24 03:00:44;;;;;;;29.58;9.05;;;;;;;-143.21;64.01;71388.09;5111599;28;20227;-78
2023/09/24 03:03:15;;;;;;;35.53;8.77;;;;;;;-143.21;64.09;71390.09;5108427;28;20224;-80
2023/09/24 03:05:43;;;;;;;44.22;9.65;;;;;;;-143.21;64.51;71402.00;5109334;28;20204;-79
2023/09/24 03:08:11;;;;;;;27.45;8.00;;;;;;;-143.21;64.62;71400.00;5109221;28;20204;-78
2023/09/24 03:10:38;;;;;;;35.45;8.27;;;;;;;-143.21;65.01;71400.00;5111435;28;20261;-79
2023/09/24 03:13:05;;;;;;;32.45;8.75;;;;;;;-143.21;64.31;71398.03;5108346;28;20199;-79
2023/09/24 03:15:33;;;;;;;34.00;8.55;;;;;;;-143.21;63.93;71394.06;5108468;28;20697;-78
2023/09/24 03:17:59;;;;;;;30.02;8.43;;;;;;;-143.21;63.78;71388.09;5108968;28;20288;-77
2023/09/24 03:20:27;;;;;;;32.50;8.48;;;;;;;-143.21;64.07;71384.16;5109018;28;20583;-77
2023/09/24 03:22:58;;;;;;;32.85;8.35;;;;;;;-143.21;64.62;71398.03;5109115;28;20220;-78
2023/09/24 03:25:27;;;;;;;34.70;8.55;;;;;;;-143.21;64.62;71386.13;5108418;28;20295;-78
2023/09/24 03:27:56;;;;;;;24.20;8.50;;;;;;;-143.21;65.01;71407.94;5109083;28;20192;-78
2023/09/24 03:30:24;;;;;;;33.97;8.77;;;;;;;-143.21;64.93;71407.94;5108219;28;20214;-78
2023/09/24 03:32:52;;;;;;;32.60;8.05;;;;;;;-143.21;65.27;71405.94;5108565;28;20228;-78
2023/09/24 03:35:21;;;;;;;38.92;8.30;;;;;;;-143.21;65.30;71421.81;5107449;28;20222;-78
2023/09/24 03:37:48;;;;;;;32.55;8.60;;;;;;;-143.21;65.46;71421.81;5109107;28;20630;-79
2023/09/24 03:40:19;;;;;;;41.15;8.25;;;;;;;-143.21;65.33;71415.88;5108196;28;20207;-79
2023/09/24 03:42:46;;;;;;;26.50;8.48;;;;;;;-143.21;65.34;71411.91;5108433;28;20762;-79
2023/09/24 03:45:15;;;;;;;29.83;8.73;;;;;;;-143.21;65.16;71415.88;5108308;28;20323;-79
2023/09/24 03:47:42;;;;;;;30.75;8.13;;;;;;;-143.21;65.29;71417.84;5107927;28;20295;-79
2023/09/24 03:50:13;;;;;;;31.02;8.90;;;;;;;-143.21;66.34;71443.63;5108440;28;20563;-79
2023/09/24 03:52:40;;;;;;;31.88;8.55;;;;;;;-143.21;66.37;71447.59;5108468;28;20199;-79
2023/09/24 03:55:08;;;;;;;28.65;8.85;;;;;;;-143.21;66.42;71451.56;5107201;28;20211;-80
2023/09/24 03:57:37;;;;;;;31.23;8.95;;;;;;;-143.21;66.63;71443.63;5110196;28;20203;-79
2023/09/24 04:00:08;;;;;;;36.55;9.00;;;;;;;-143.21;66.48;71455.53;5108266;28;20211;-79
2023/09/24 04:02:37;;;;;;;29.35;8.35;;;;;;;-143.21;66.48;71451.56;5107850;28;20628;-78
2023/09/24 04:05:05;;;;;;;33.58;9.38;;;;;;;-143.21;65.92;71461.47;5108978;28;20233;-79
2023/09/24 04:07:32;;;;;;;26.30;8.18;;;;;;;-143.21;66.85;71479.31;5110429;28;20196;-78
2023/09/24 04:09:59;;;;;;;41.30;8.77;;;;;;;-143.21;66.93;71491.22;5107920;28;20282;-80
2023/09/24 04:12:26;;;;;;;29.08;8.27;;;;;;;-143.21;66.11;71483.28;5108610;28;20195;-78
2023/09/24 04:14:57;;;;;;;30.63;8.63;;;;;;;-143.21;66.40;71499.13;5108802;28;20610;-76
2023/09/24 04:17:23;;;;;;;38.65;9.07;;;;;;;-143.21;66.87;71511.03;5109381;28;20204;-78
2023/09/24 04:19:52;;;;;;;29.02;8.85;;;;;;;-143.21;66.85;71513.03;5110459;28;20207;-78
2023/09/24 04:22:19;;;;;;;36.33;9.15;;;;;;;-143.21;66.30;71507.06;5108086;28;20334;-78
2023/09/24 04:24:45;;;;;;;43.67;10.43;;;;;;;-143.21;66.01;71516.97;5107838;28;20208;-78
2023/09/24 04:27:12;;;;;;;43.80;18.45;;;;;;;-143.21;65.56;71536.81;5107472;28;20196;-78
2023/09/24 04:29:39;;;;;;;60.28;28.42;;;;;;;-143.21;65.53;71534.81;5108010;28;20200;-79
2023/09/24 04:32:08;;;;;;;53.22;23.10;;;;;;;-143.21;65.50;71542.75;5106992;28;20285;-80
2023/09/24 04:34:35;;;;;;;55.38;21.77;;;;;;;-143.21;65.44;71546.72;5107415;28;20211;-79
2023/09/24 04:37:02;;;;;;;34.83;13.65;;;;;;;-143.21;65.43;71536.81;5107479;28;20362;-78
2023/09/24 04:39:29;;;;;;;38.35;12.52;;;;;;;-143.21;65.17;71542.75;5107995;28;20208;-79
2023/09/24 04:41:56;;;;;;;34.78;10.20;;;;;;;-143.21;65.56;71544.75;5104471;28;20243;-80
2023/09/24 04:44:23;;;;;;;34.33;9.40;;;;;;;-143.21;65.32;71542.75;5107449;28;20573;-79
2023/09/24 04:46:51;;;;;;;41.00;8.40;;;;;;;-143.21;65.01;71536.81;5107757;28;20208;-78
2023/09/24 04:49:19;;;;;;;29.00;8.10;;;;;;;-143.21;65.25;71534.81;5106932;28;20214;-77
2023/09/24 04:51:46;;;;;;;36.80;8.23;;;;;;;-143.21;64.89;71522.94;5107502;28;20309;-77
2023/09/24 04:54:13;;;;;;;27.25;8.43;;;;;;;-143.21;64.78;71516.97;5107580;28;20286;-77
2023/09/24 04:56:40;;;;;;;25.45;8.38;;;;;;;-143.21;64.98;71522.94;5107784;28;20204;-78
2023/09/24 04:59:07;;;;;;;28.17;7.88;;;;;;;-143.21;64.91;71515.00;5108011;28;20653;-78
2023/09/24 05:01:33;;;;;;;22.92;8.55;;;;;;;-143.21;64.60;71507.06;5112094;28;20207;-78
2023/09/24 05:04:00;;;;;;;37.30;8.63;;;;;;;-143.21;64.51;71511.03;5111406;28;20208;-76
2023/09/24 05:06:28;;;;;;;23.08;8.05;;;;;;;-143.21;65.36;71507.06;5108160;28;20203;-77
2023/09/24 05:08:55;;;;;;;36.63;9.18;;;;;;;-143.21;65.22;71493.19;5112374;28;20200;-78
2023/09/24 05:11:22;;;;;;;26.52;8.45;;;;;;;-143.21;65.08;71487.25;5111190;28;20203;-76
2023/09/24 05:13:49;;;;;;;30.20;8.38;;;;;;;-143.21;65.45;71485.25;5111236;28;20208;-76
2023/09/24 05:16:16;;;;;;;27.60;8.88;;;;;;;-143.21;64.85;71479.31;5111475;28;20203;-78
2023/09/24 05:18:43;;;;;;;30.15;8.88;;;;;;;-143.21;65.01;71477.34;5111209;28;20196;-79
2023/09/24 05:21:17;;;;;;;29.30;8.10;;;;;;;-143.21;64.62;71475.34;5110583;28;20211;-79
2023/09/24 05:23:46;;;;;;;21.70;8.23;;;;;;;-143.21;64.64;71469.41;5111664;27;20424;-80
2023/09/24 05:26:13;;;;;;;34.33;8.80;;;;;;;-143.21;64.87;71471.38;5115911;28;20234;-79
2023/09/24 05:28:40;;;;;;;27.30;8.40;;;;;;;-143.21;64.55;71471.38;5112027;28;20252;-80
2023/09/24 05:31:08;;;;;;;24.52;8.43;;;;;;;-143.21;64.74;71459.47;5110701;28;20224;-80
2023/09/24 05:33:35;;;;;;;34.22;10.05;;;;;;;-143.21;64.37;71467.41;5111308;28;20226;-80
2023/09/24 05:36:03;;;;;;;32.58;9.43;;;;;;;-143.21;64.35;71475.34;5110631;28;20567;-79
2023/09/24 05:38:30;;;;;;;31.85;8.77;;;;;;;-143.21;63.58;71461.47;5110988;28;20204;-78
2023/09/24 05:40:59;;;;;;;29.33;8.98;;;;;;;-143.21;63.56;71453.53;5111257;28;20212;-78
2023/09/24 05:43:26;;;;;;;24.83;8.25;;;;;;;-143.21;63.27;71451.56;5110830;28;20231;-78
2023/09/24 05:45:53;;;;;;;31.20;8.38;;;;;;;-143.21;63.48;71453.53;5111009;28;20666;-77
2023/09/24 05:48:20;;;;;;;30.90;8.23;;;;;;;-143.21;63.52;71457.50;5109920;28;20212;-77
2023/09/24 05:50:47;;;;;;;25.55;8.20;;;;;;;-143.21;63.78;71455.53;5109952;28;20293;-76
2023/09/24 05:53:15;;;;;;;25.50;7.75;;;;;;;-143.21;64.19;71453.53;5109423;28;20196;-77
2023/09/24 05:55:51;;;;;;;30.63;7.85;;;;;;;-143.21;64.34;71445.59;5110594;28;20689;-76
2023/09/24 05:58:20;;;;;;;30.60;8.27;;;;;;;-143.21;63.92;71441.63;5109584;28;20214;-77
2023/09/24 06:00:47;;;;;;;34.03;8.60;;;;;;;-143.21;63.78;71429.75;5110147;28;20299;-76
2023/09/24 06:03:14;;;;;;;30.42;8.25;;;;;;;-143.21;63.71;71419.84;5109293;28;20397;-77
2023/09/24 06:05:41;;;;;;;25.58;7.90;;;;;;;-143.21;64.05;71425.78;5110183;28;20208;-77
2023/09/24 06:08:08;;;;;;;29.35;8.07;;;;;;;-143.21;63.64;71415.88;5109852;28;20204;-77
2023/09/24 06:10:35;;;;;;;26.98;7.75;;;;;;;-143.21;63.22;71407.94;5108795;28;20207;-78
2023/09/24 06:13:02;;;;;;;25.13;7.70;;;;;;;-143.21;63.00;71407.94;5109369;28;20223;-78
2023/09/24 06:15:30;;;;;;;31.73;7.57;;;;;;;-143.21;62.96;71402.00;5109577;28;20199;-79
2023/09/24 06:17:57;;;;;;;24.85;8.57;;;;;;;-143.21;63.16;71403.97;5105132;28;20208;-79
2023/09/24 06:20:24;;;;;;;27.27;7.75;;;;;;;-143.21;63.28;71394.06;5107633;28;20204;-79
2023/09/24 06:22:53;;;;;;;33.28;7.97;;;;;;;-143.21;63.21;71388.09;5109385;28;20220;-78
2023/09/24 06:25:20;;;;;;;33.53;7.63;;;;;;;-143.21;62.93;71388.09;5108971;28;20679;-78
2023/09/24 06:27:47;;;;;;;26.38;7.78;;;;;;;-143.21;63.00;71386.13;5107162;28;20668;-79
2023/09/24 06:30:17;;;;;;;28.17;7.57;;;;;;;-143.21;63.28;71386.13;5109283;28;20235;-79
2023/09/24 06:32:45;;;;;;;26.83;7.68;;;;;;;-143.21;63.19;71378.19;5109943;28;20232;-77
2023/09/24 06:35:12;;;;;;;25.25;7.22;;;;;;;-143.21;63.18;71370.28;5111652;28;20215;-78
2023/09/24 06:37:39;;;;;;;26.95;7.28;;;;;;;-143.21;62.86;71364.31;5110116;28;20566;-79
2023/09/24 06:40:08;;;;;;;22.90;7.70;;;;;;;-143.21;62.65;71362.34;5109300;28;20587;-78
2023/09/24 06:42:36;;;;;;;28.15;6.90;;;;;;;-143.21;62.75;71354.41;5109242;28;20315;-78
2023/09/24 06:45:03;;;;;;;24.45;7.10;;;;;;;-143.21;62.74;71348.47;5108531;28;20667;-79
2023/09/24 06:47:30;;;;;;;19.25;7.40;;;;;;;-143.21;62.36;71342.50;5108264;28;20268;-79
2023/09/24 06:49:58;;;;;;;31.17;7.35;;;;;;;-143.21;62.18;71326.66;5107186;28;20211;-79
2023/09/24 06:52:26;;;;;;;31.73;7.97;;;;;;;-143.21;62.11;71336.56;5109104;28;20203;-79
2023/09/24 06:54:53;;;;;;;25.00;7.68;;;;;;;-143.21;62.19;71324.66;5109235;28;20204;-79
2023/09/24 06:57:20;;;;;;;25.70;7.60;;;;;;;-143.21;62.25;71316.75;5106721;28;20232;-79
2023/09/24 06:59:47;;;;;;;19.60;7.97;;;;;;;-143.21;62.25;71304.84;5108748;28;20295;-79
2023/09/24 07:02:15;;;;;;;25.83;8.68;;;;;;;-143.21;61.88;71302.84;5108755;28;20226;-77
2023/09/24 07:04:42;;;;;;;30.85;7.70;;;;;;;-143.21;61.76;71292.94;5109132;28;20204;-78
2023/09/24 07:07:10;;;;;;;29.17;8.25;;;;;;;-143.21;61.70;71285.03;5108373;28;20291;-78
2023/09/24 07:09:37;;;;;;;28.92;7.72;;;;;;;-143.21;60.97;71261.22;5107366;28;20203;-77
2023/09/24 07:12:04;;;;;;;29.58;6.97;;;;;;;-143.21;60.78;71253.28;5106293;28;20212;-81
2023/09/24 07:14:31;;;;;;;24.45;8.20;;;;;;;-143.21;60.81;71245.38;5108864;28;20249;-77
2023/09/24 07:16:58;;;;;;;22.58;7.15;;;;;;;-143.21;60.83;71227.53;5108553;28;20249;-78
2023/09/24 07:19:24;;;;;;;26.65;6.90;;;;;;;-143.21;61.21;71217.59;5108495;28;20231;-78
2023/09/24 07:21:52;;;;;;;26.15;7.28;;;;;;;-143.21;58.85;71203.72;5108328;28;20196;-77
2023/09/24 07:24:20;;;;;;;34.95;7.70;;;;;;;-143.21;58.69;71191.84;5108486;28;20288;-81
2023/09/24 07:26:47;;;;;;;24.92;7.40;;;;;;;-143.21;58.29;71177.97;5108928;28;20214;-81
2023/09/24 07:29:14;;;;;;;26.48;7.50;;;;;;;-143.21;58.63;71170.03;5105708;28;20203;-79
2023/09/24 07:31:42;;;;;;;19.85;7.35;;;;;;;-143.21;58.30;71166.06;5113990;28;20240;-83
2023/09/24 07:34:10;;;;;;;31.23;8.07;;;;;;;-143.21;57.13;71152.19;5109585;28;20200;-82
2023/09/24 07:36:37;;;;;;;28.48;8.15;;;;;;;-143.21;57.47;71146.25;5108845;28;20249;-82
2023/09/24 07:39:04;;;;;;;25.98;7.95;;;;;;;-143.21;57.34;71138.31;5108184;28;20211;-80
2023/09/24 07:41:32;;;;;;;23.35;7.60;;;;;;;-143.21;57.28;71124.44;5108403;28;20267;-80
2023/09/24 07:43:59;;;;;;;27.90;8.38;;;;;;;-143.21;57.03;71116.50;5109736;28;20227;-80
2023/09/24 07:46:26;;;;;;;26.80;8.10;;;;;;;-143.21;56.95;71094.69;5108527;28;20648;-80
2023/09/24 07:48:53;;;;;;;27.08;7.57;;;;;;;-143.21;57.29;71080.81;5105596;28;20218;-81
2023/09/24 07:51:23;;;;;;;25.13;7.28;;;;;;;-143.21;56.42;71074.88;5108172;28;20667;-79
2023/09/24 07:53:50;;;;;;;30.15;8.18;;;;;;;-143.21;56.26;71064.97;5108361;28;20268;-80
2023/09/24 07:56:17;;;;;;;31.33;7.63;;;;;;;-143.21;56.03;71035.22;5108135;28;20218;-80
2023/09/24 07:58:56;;;;;;;26.17;7.78;;;;;;;-143.21;55.67;71023.34;5104159;28;20269;-80
2023/09/24 08:01:26;;;;;;;29.83;7.43;;;;;;;-143.21;55.26;71005.50;5105846;28;20204;-78
2023/09/24 08:03:53;;;;;;;24.90;7.57;;;;;;;-143.21;55.25;70993.59;5102715;28;20314;-80
2023/09/24 08:06:20;;;;;;;26.05;7.80;;;;;;;-143.21;54.71;70973.78;5106310;28;20196;-80
2023/09/24 08:08:47;;;;;;;26.00;8.13;;;;;;;-143.21;54.59;70955.94;5106524;28;20208;-80
2023/09/24 08:11:14;;;;;;;28.45;8.75;;;;;;;-143.21;54.38;70953.94;5106133;28;20200;-79
2023/09/24 08:13:40;;;;;;;27.98;8.48;;;;;;;-143.21;54.25;70944.03;5105890;28;20192;-79
2023/09/24 08:16:23;;;;;;;22.77;7.90;;;;;;;-143.21;53.77;70922.22;5105277;28;20558;-81
2023/09/24 08:18:50;;;;;;;27.27;7.65;;;;;;;-143.21;53.55;70916.28;5105544;28;20231;-80
2023/09/24 08:21:19;;;;;;;25.48;8.00;;;;;;;-143.21;53.17;70898.44;5105974;28;20196;-79
2023/09/24 08:23:46;;;;;;;23.08;6.88;;;;;;;-143.21;53.15;70878.63;5106113;28;20304;-79
2023/09/24 08:26:22;;;;;;;19.50;6.97;;;;;;;-143.21;52.87;70864.75;5106017;28;20207;-80
2023/09/24 08:28:49;;;;;;;38.13;8.45;;;;;;;-143.21;52.07;70840.97;5106033;28;20589;-81
2023/09/24 08:31:20;;;;;;;30.13;8.02;;;;;;;-143.21;51.41;70823.13;5104609;28;20212;-81
2023/09/24 08:33:49;;;;;;;17.25;6.95;;;;;;;-143.21;50.97;70809.25;5107895;28;20200;-78
2023/09/24 08:36:19;;;;;;;24.10;6.90;;;;;;;-143.21;50.75;70801.31;5109677;28;20212;-79
2023/09/24 08:38:46;;;;;;;25.20;7.20;;;;;;;-143.21;50.28;70791.41;5107469;28;20714;-81
2023/09/24 08:41:16;;;;;;;32.95;6.60;;;;;;;-143.21;52.80;70781.50;5109483;28;20211;-81
2023/09/24 08:43:46;;;;;;;18.15;5.90;;;;;;;-143.21;50.99;70773.56;5110093;28;20285;-80
2023/09/24 08:46:16;;;;;;;25.90;7.47;;;;;;;-143.21;50.29;70775.53;5109882;28;20211;-80
2023/09/24 08:48:44;;;;;;;19.50;7.45;;;;;;;-143.21;50.29;70783.47;5113251;28;20212;-82
2023/09/24 08:51:13;;;;;;;18.13;7.20;;;;;;;-143.21;50.03;70771.56;5109659;28;20659;-81
2023/09/24 08:53:43;;;;;;;18.40;7.55;;;;;;;-143.21;49.36;70767.63;5110190;28;20222;-82
2023/09/24 08:56:09;;;;;;;24.48;7.18;;;;;;;-143.21;49.16;70757.69;5110121;28;20207;-82
2023/09/24 08:58:36;;;;;;;28.98;7.88;;;;;;;-143.21;49.13;70747.78;5109275;28;20199;-79
2023/09/24 09:01:08;;;;;;;31.45;8.10;;;;;;;-143.21;48.65;70737.88;5110052;28;20196;-82
2023/09/24 09:03:36;;;;;;;29.90;7.30;;;;;;;-143.21;48.29;70725.97;5109467;28;20603;-80
2023/09/24 09:06:03;;;;;;;32.53;8.30;;;;;;;-143.21;48.24;70718.06;5109103;28;20200;-79
2023/09/24 09:08:50;;;;;;;22.23;7.32;;;;;;;-143.21;48.08;70714.09;5105335;27;20760;-80
2023/09/24 09:11:19;;;;;;;20.80;7.32;;;;;;;-143.21;47.50;70712.09;5109351;28;20231;-77
2023/09/24 09:13:49;;;;;;;24.05;7.53;;;;;;;-143.21;47.21;70700.22;5109460;28;20648;-79
2023/09/24 09:16:16;;;;;;;25.90;7.70;;;;;;;-143.21;47.25;70686.34;5109713;28;20631;-79
2023/09/24 09:18:43;;;;;;;31.63;10.65;;;;;;;-143.21;47.40;70678.41;5108814;28;20196;-79
2023/09/24 09:21:10;;;;;;;30.38;8.75;;;;;;;-143.21;46.95;70678.41;5108207;28;20191;-79
2023/09/24 09:23:41;;;;;;;22.35;7.30;;;;;;;-143.21;46.79;70670.47;5108644;28;20231;-79
2023/09/24 09:26:08;;;;;;;43.65;18.33;;;;;;;-143.21;47.10;70666.50;5108886;27;20208;-82
2023/09/24 09:28:35;;;;;;;48.97;15.90;;;;;;;-143.21;46.95;70656.59;5107806;28;20261;-81
2023/09/24 09:31:07;;;;;;;26.48;8.55;;;;;;;-143.21;46.50;70650.66;5108608;28;20633;-80
2023/09/24 09:33:35;;;;;;;28.45;7.35;;;;;;;-143.21;46.19;70642.72;5108362;28;20331;-80
2023/09/24 09:36:02;;;;;;;16.90;6.70;;;;;;;-143.21;46.27;70632.81;5108439;28;20239;-78
2023/09/24 09:38:29;;;;;;;27.48;6.72;;;;;;;-143.21;46.12;70620.94;5104257;28;20207;-78
2023/09/24 09:40:58;;;;;;;24.95;7.72;;;;;;;-143.21;45.79;70622.91;5110296;28;20204;-79
2023/09/24 09:43:27;;;;;;;25.20;7.18;;;;;;;-143.21;45.67;70613.00;5109492;28;20699;-80
2023/09/24 09:45:58;;;;;;;22.00;7.13;;;;;;;-143.21;45.08;70603.09;5108509;28;20211;-78
2023/09/24 09:48:30;;;;;;;16.70;6.72;;;;;;;-143.21;45.29;70597.13;5109079;28;20203;-80
2023/09/24 09:51:11;;;;;;;24.75;6.30;;;;;;;-143.21;44.75;70581.28;5104239;28;20291;-78
2023/09/24 09:53:39;;;;;;;19.27;6.53;;;;;;;-143.21;44.47;70575.34;5106301;28;20211;-79
2023/09/24 09:56:08;;;;;;;17.75;7.25;;;;;;;-143.21;44.27;70571.38;5107279;28;20658;-78
2023/09/24 09:58:37;;;;;;;18.17;6.10;;;;;;;-143.21;44.47;70573.34;5107226;28;20207;-77
2023/09/24 10:01:10;;;;;;;22.60;7.63;;;;;;;-143.21;43.96;70569.38;5107191;28;20224;-79
2023/09/24 10:03:40;;;;;;;21.17;6.93;;;;;;;-143.21;44.16;70561.47;5106888;28;20216;-77
2023/09/24 10:06:10;;;;;;;23.70;7.18;;;;;;;-143.21;43.75;70539.66;5107390;28;20207;-77
2023/09/24 10:08:42;;;;;;;22.73;7.15;;;;;;;-143.21;43.62;70517.84;5107789;28;20233;-79
2023/09/24 10:11:11;;;;;;;26.92;6.93;;;;;;;-143.21;43.33;70507.94;5106836;28;20196;-78
2023/09/24 10:13:43;;;;;;;25.73;6.43;;;;;;;-143.21;43.61;70500.00;5106767;28;20204;-78
2023/09/24 10:16:35;;;;;;;22.42;6.20;;;;;;;-143.21;42.84;70511.91;5107280;28;20200;-78
2023/09/24 10:19:07;;;;;;;23.67;6.68;;;;;;;-143.21;43.62;70505.97;5104540;28;20232;-79
2023/09/24 10:21:35;;;;;;;22.30;6.80;;;;;;;-143.21;43.24;70503.97;5104559;28;20211;-78
2023/09/24 10:24:47;;;;;;;27.70;7.00;;;;;;;-143.21;43.21;70523.81;5106849;28;20231;-79
2023/09/24 10:27:16;;;;;;;23.38;6.25;;;;;;;-143.21;43.47;70523.81;5077693;27;20347;-79
2023/09/24 10:30:04;;;;;;;27.70;7.70;;;;;;;-143.21;43.07;70529.75;5107564;28;20573;-79
2023/09/24 10:32:43;;;;;;;27.02;7.10;;;;;;;-143.21;43.61;70527.75;5104242;28;20235;-79
2023/09/24 10:35:11;;;;;;;24.98;7.15;;;;;;;-143.21;43.70;70523.81;5106124;28;20195;-80
2023/09/24 10:38:02;;;;;;;27.58;6.75;;;;;;;-143.21;43.48;70521.81;5104950;28;20585;-80
2023/09/24 10:40:29;;;;;;;27.25;7.30;;;;;;;-143.21;43.72;70523.81;5106836;28;20231;-80
2023/09/24 10:43:19;;;;;;;25.42;6.63;;;;;;;-143.21;44.01;70523.81;5106734;28;20210;-80
2023/09/24 10:45:48;;;;;;;21.30;6.38;;;;;;;-143.21;43.18;70523.81;5106012;28;20215;-78
2023/09/24 10:48:16;;;;;;;16.88;6.60;;;;;;;-143.21;42.75;70519.84;5106766;28;20200;-79
2023/09/24 10:50:44;;;;;;;25.63;7.25;;;;;;;-143.21;43.02;70525.78;5106423;28;20739;-79
2023/09/24 10:53:11;;;;;;;25.05;7.28;;;;;;;-143.21;43.15;70505.97;5106182;28;20581;-79
2023/09/24 10:55:41;;;;;;;28.90;7.40;;;;;;;-143.21;42.81;70494.06;5106379;28;20203;-77
2023/09/24 10:58:13;;;;;;;22.00;7.18;;;;;;;-143.21;42.14;70492.09;5106131;28;20286;-78
2023/09/24 11:00:43;;;;;;;24.35;6.47;;;;;;;-143.21;42.09;70480.19;5105610;28;20225;-76
2023/09/24 11:03:13;;;;;;;23.13;6.72;;;;;;;-143.21;42.08;70466.31;5105939;28;20211;-78
2023/09/24 11:05:45;;;;;;;27.92;6.50;;;;;;;-143.21;42.05;70450.47;5106596;28;20228;-78
2023/09/24 11:08:15;;;;;;;23.58;6.68;;;;;;;-143.21;42.08;70436.59;5105843;28;20290;-77
2023/09/24 11:10:46;;;;;;;21.90;6.85;;;;;;;-143.21;41.82;70428.66;5106204;28;20305;-77
2023/09/24 11:13:13;;;;;;;17.90;6.32;;;;;;;-143.21;41.51;70424.69;5105593;28;20560;-78
2023/09/24 11:15:42;;;;;;;30.20;6.63;;;;;;;-143.21;41.59;70414.78;5106275;28;20253;-78